Time;durP1;ratioP1;P1;durP2;ratioP2;P2;SDS_P1;SDS_P2;PMS_P1;PMS_P2;Temp;Humidity;BMP_temperature;BMP_pressure;BME280_temperature;BME280_humidity;BME280_pressure;Samples;Min_cycle;Max_cycle;Signal;HPM_P1;HPM_P2
2023/07/16 00:49:28;;;;;;;;;;;;;;;;;;;;;
2023/07/16 00:55:54;;;;;;;2.50;1.63;;;;;;;;;;4894668;28;20429;-90
2023/07/16 01:08:18;;;;;;;2.87;2.10;;;;;;;;;;4879353;29;20575;-90
2023/07/16 01:18:08;;;;;;;1.97;1.63;;;;;;;;;;4850626;29;20441;-90
2023/07/16 01:21:08;;;;;;;2.40;1.77;;;;;;;;;;4883765;29;20426;-90
2023/07/16 01:24:02;;;;;;;2.30;1.60;;;;;;;;;;4861916;29;20428;-88
2023/07/16 01:30:15;;;;;;;1.70;1.10;;;;;;;;;;4863726;29;20491;-89
2023/07/16 01:36:17;;;;;;;1.67;1.13;;;;;;;;;;4857596;29;20995;-90
2023/07/16 01:39:47;;;;;;;;;;;;;;;;;;;;;
2023/07/16 01:42:16;;;;;;;1.70;1.43;;;;;;;;;;4791115;29;20434;-91
2023/07/16 01:51:20;;;;;;;;;;;;;;;;;;;;;
2023/07/16 02:22:55;;;;;;;2.13;1.60;;;;;;;;;;4765092;30;20431;-88
2023/07/16 02:25:25;;;;;;;2.30;1.40;;;;;;;;;;4698807;30;20478;-88
2023/07/16 02:27:51;;;;;;;2.43;1.40;;;;;;;;;;4737194;30;20480;-88
2023/07/16 02:30:17;;;;;;;1.93;1.43;;;;;;;;;;4750254;30;20444;-88
2023/07/16 02:32:43;;;;;;;6.50;1.60;;;;;;;;;;4738135;30;20449;-88
2023/07/16 02:35:09;;;;;;;1.67;1.20;;;;;;;;;;4727386;30;20444;-88
2023/07/16 02:37:35;;;;;;;1.60;1.30;;;;;;;;;;4738237;30;20460;-88
2023/07/16 02:40:01;;;;;;;2.23;1.20;;;;;;;;;;4739992;30;20452;-89
2023/07/16 02:42:27;;;;;;;2.20;1.37;;;;;;;;;;4739629;30;20509;-88
2023/07/16 02:44:53;;;;;;;2.60;1.20;;;;;;;;;;4743202;30;20530;-88
2023/07/16 02:47:19;;;;;;;3.00;1.50;;;;;;;;;;4772889;29;20487;-91
2023/07/16 02:49:45;;;;;;;2.33;1.10;;;;;;;;;;4850315;29;20426;-90
2023/07/16 02:52:11;;;;;;;4.07;1.77;;;;;;;;;;4862868;28;20947;-91
2023/07/16 02:54:37;;;;;;;2.53;1.53;;;;;;;;;;4954077;28;20415;-90
2023/07/16 02:57:03;;;;;;;2.20;1.50;;;;;;;;;;4954657;28;22583;-91
2023/07/16 02:59:29;;;;;;;2.03;1.57;;;;;;;;;;4950258;28;20430;-91
2023/07/16 03:01:55;;;;;;;2.43;1.73;;;;;;;;;;4955271;29;21003;-91
2023/07/16 03:04:21;;;;;;;1.90;1.33;;;;;;;;;;4959823;28;20457;-91
2023/07/16 03:06:47;;;;;;;1.60;1.10;;;;;;;;;;4950341;29;20445;-91
2023/07/16 03:09:13;;;;;;;2.93;1.40;;;;;;;;;;4953781;28;20502;-91
2023/07/16 03:11:39;;;;;;;5.23;1.50;;;;;;;;;;4964512;28;20433;-91
2023/07/16 03:14:06;;;;;;;3.50;1.30;;;;;;;;;;4950933;28;20465;-91
2023/07/16 03:16:32;;;;;;;2.43;1.40;;;;;;;;;;4952482;28;20433;-89
2023/07/16 03:18:58;;;;;;;1.90;1.37;;;;;;;;;;4955730;28;20433;-87
2023/07/16 03:21:24;;;;;;;1.97;1.53;;;;;;;;;;4955059;28;20422;-89
2023/07/16 03:23:50;;;;;;;2.47;2.00;;;;;;;;;;4940442;29;20439;-88
2023/07/16 03:26:16;;;;;;;4.70;1.53;;;;;;;;;;4940310;28;20434;-89
2023/07/16 03:28:42;;;;;;;2.17;1.10;;;;;;;;;;4947060;28;20429;-88
2023/07/16 03:31:08;;;;;;;2.43;1.47;;;;;;;;;;4959986;29;20435;-89
2023/07/16 03:33:34;;;;;;;2.03;1.60;;;;;;;;;;4939336;29;20530;-88
2023/07/16 03:36:00;;;;;;;2.57;1.50;;;;;;;;;;4944775;29;20493;-89
2023/07/16 03:38:26;;;;;;;3.00;1.60;;;;;;;;;;4948978;28;20477;-88
2023/07/16 03:40:52;;;;;;;3.00;1.43;;;;;;;;;;4960022;28;20480;-88
2023/07/16 03:43:18;;;;;;;3.37;1.60;;;;;;;;;;4949181;28;20462;-89
2023/07/16 03:45:44;;;;;;;2.53;1.60;;;;;;;;;;4950219;28;20805;-88
2023/07/16 03:48:10;;;;;;;4.90;1.70;;;;;;;;;;4948208;28;20440;-88
2023/07/16 03:50:36;;;;;;;7.57;2.20;;;;;;;;;;4948948;28;20532;-88
2023/07/16 03:53:03;;;;;;;2.30;1.70;;;;;;;;;;4969253;28;20452;-90
2023/07/16 03:55:29;;;;;;;2.40;1.70;;;;;;;;;;4943600;28;20441;-90
2023/07/16 03:57:55;;;;;;;3.33;2.10;;;;;;;;;;4953383;28;20452;-91
2023/07/16 04:00:21;;;;;;;2.27;1.10;;;;;;;;;;4959955;28;20430;-91
2023/07/16 04:02:47;;;;;;;6.73;1.70;;;;;;;;;;4950495;28;20516;-91
2023/07/16 04:05:13;;;;;;;11.70;1.63;;;;;;;;;;4949791;28;20456;-91
2023/07/16 04:07:39;;;;;;;2.80;1.73;;;;;;;;;;4955666;28;20527;-92
2023/07/16 04:10:05;;;;;;;2.40;1.37;;;;;;;;;;4956012;28;20435;-93
2023/07/16 04:12:31;;;;;;;3.43;1.90;;;;;;;;;;4960025;28;20438;-94
2023/07/16 04:14:57;;;;;;;2.17;1.97;;;;;;;;;;4961618;28;20492;-94
2023/07/16 04:17:23;;;;;;;2.10;1.53;;;;;;;;;;4961771;28;20467;-92
2023/07/16 04:19:49;;;;;;;3.50;1.93;;;;;;;;;;4958768;28;20518;-94
2023/07/16 04:22:15;;;;;;;3.27;1.53;;;;;;;;;;4964728;28;20444;-89
2023/07/16 04:24:41;;;;;;;4.87;1.80;;;;;;;;;;4953795;28;20434;-90
2023/07/16 04:27:07;;;;;;;2.37;1.57;;;;;;;;;;4956261;28;20476;-90
2023/07/16 04:29:33;;;;;;;3.07;2.37;;;;;;;;;;4949989;28;20841;-89
2023/07/16 04:31:59;;;;;;;1.80;1.30;;;;;;;;;;4951717;28;20441;-89
2023/07/16 04:34:25;;;;;;;1.70;1.20;;;;;;;;;;4949643;28;20998;-89
2023/07/16 04:36:51;;;;;;;3.87;1.47;;;;;;;;;;4967262;28;20540;-93
2023/07/16 04:39:17;;;;;;;3.40;2.40;;;;;;;;;;4952863;28;20959;-90
2023/07/16 04:41:43;;;;;;;4.73;1.60;;;;;;;;;;4950429;28;20433;-89
2023/07/16 04:44:09;;;;;;;2.33;1.60;;;;;;;;;;4950456;28;20461;-95
2023/07/16 04:46:35;;;;;;;3.43;2.63;;;;;;;;;;4951867;29;20465;-94
2023/07/16 04:49:02;;;;;;;2.90;1.60;;;;;;;;;;4950269;28;20403;-95
2023/07/16 04:51:28;;;;;;;5.43;1.70;;;;;;;;;;4957092;28;20433;-94
2023/07/16 04:53:54;;;;;;;3.13;1.80;;;;;;;;;;4957731;28;20441;-92
2023/07/16 04:56:20;;;;;;;3.77;2.07;;;;;;;;;;4947806;28;20425;-92
2023/07/16 04:58:51;;;;;;;4.77;1.90;;;;;;;;;;4955122;28;20491;-93
2023/07/16 05:01:17;;;;;;;3.60;1.80;;;;;;;;;;4988095;28;20522;-92
2023/07/16 05:03:43;;;;;;;8.70;2.00;;;;;;;;;;4945062;28;20430;-91
2023/07/16 05:06:10;;;;;;;2.57;1.80;;;;;;;;;;4954216;28;20432;-91
2023/07/16 05:08:36;;;;;;;1.90;1.40;;;;;;;;;;4950968;28;20440;-92
2023/07/16 05:11:02;;;;;;;4.67;1.90;;;;;;;;;;4954150;28;20438;-91
2023/07/16 05:13:28;;;;;;;2.30;1.60;;;;;;;;;;4962410;28;20442;-91
2023/07/16 05:15:54;;;;;;;6.37;2.10;;;;;;;;;;4965551;28;20504;-92
2023/07/16 05:18:21;;;;;;;3.03;1.93;;;;;;;;;;4972566;28;20477;-91
2023/07/16 05:20:48;;;;;;;2.40;1.70;;;;;;;;;;4950289;28;20437;-93
2023/07/16 05:23:14;;;;;;;3.37;1.97;;;;;;;;;;4947132;28;20441;-93
2023/07/16 05:25:45;;;;;;;1.87;1.47;;;;;;;;;;4947513;28;20498;-92
2023/07/16 05:38:39;;;;;;;9.70;2.27;;;;;;;;;;4862098;29;20471;-92
2023/07/16 05:44:44;;;;;;;4.10;1.63;;;;;;;;;;4849488;29;20494;-95
2023/07/16 05:51:03;;;;;;;3.63;1.90;;;;;;;;;;4826445;29;20452;-93
2023/07/16 05:56:47;;;;;;;3.90;1.70;;;;;;;;;;4863170;29;20988;-90
2023/07/16 05:59:38;;;;;;;7.13;1.83;;;;;;;;;;4847131;29;20440;-90
2023/07/16 06:02:42;;;;;;;2.30;1.87;;;;;;;;;;4857195;29;20454;-90
2023/07/16 06:05:46;;;;;;;3.40;1.70;;;;;;;;;;4847072;29;20407;-90
2023/07/16 06:08:37;;;;;;;3.20;2.13;;;;;;;;;;4859048;29;20441;-94
2023/07/16 06:17:15;;;;;;;1.97;1.30;;;;;;;;;;4955256;28;20618;-93
2023/07/16 06:20:06;;;;;;;3.20;2.10;;;;;;;;;;4957809;28;20457;-94
2023/07/16 06:22:50;;;;;;;3.97;1.53;;;;;;;;;;4953360;28;20413;-94
2023/07/16 06:25:21;;;;;;;2.60;1.90;;;;;;;;;;4973161;28;20422;-94
2023/07/16 06:31:14;;;;;;;2.30;1.60;;;;;;;;;;4971144;28;20438;-94
2023/07/16 06:33:50;;;;;;;2.60;1.50;;;;;;;;;;4891513;29;20433;-95
2023/07/16 06:36:22;;;;;;;6.13;1.50;;;;;;;;;;4891413;29;20426;-94
2023/07/16 06:38:56;;;;;;;2.87;1.63;;;;;;;;;;4868216;29;20544;-94
2023/07/16 06:41:34;;;;;;;4.90;1.73;;;;;;;;;;4880467;29;20712;-90
2023/07/16 06:44:40;;;;;;;3.33;1.70;;;;;;;;;;4848841;29;20465;-89
2023/07/16 06:47:08;;;;;;;3.13;1.83;;;;;;;;;;4876558;29;20916;-89
2023/07/16 06:49:37;;;;;;;3.13;1.73;;;;;;;;;;4882432;29;20855;-89
2023/07/16 06:52:09;;;;;;;6.37;1.80;;;;;;;;;;4854412;29;20489;-89
2023/07/16 06:55:01;;;;;;;5.53;1.97;;;;;;;;;;4882164;29;20439;-89
2023/07/16 06:57:29;;;;;;;4.33;1.60;;;;;;;;;;4868261;29;20498;-91
2023/07/16 07:00:37;;;;;;;;;;;;;;;;;;;;;
2023/07/16 07:03:09;;;;;;;1.93;1.53;;;;;;;;;;4869303;29;20513;-89
2023/07/16 07:05:41;;;;;;;2.30;1.80;;;;;;;;;;4974558;28;20414;-89
2023/07/16 07:08:08;;;;;;;1.87;1.50;;;;;;;;;;4964643;28;20433;-89
2023/07/16 07:15:00;;;;;;;2.83;1.80;;;;;;;;;;4944481;29;20451;-89
2023/07/16 07:17:05;;;;;;;2.43;1.70;;;;;;;;;;4939211;28;20471;-88
2023/07/16 07:26:25;;;;;;;2.10;1.50;;;;;;;;;;4846575;29;20412;-90
2023/07/16 07:29:23;;;;;;;3.10;1.60;;;;;;;;;;4833448;29;20498;-89
2023/07/16 07:31:49;;;;;;;4.63;2.07;;;;;;;;;;4838976;29;20452;-88
2023/07/16 07:34:15;;;;;;;3.33;1.77;;;;;;;;;;4825974;29;20535;-88
2023/07/16 07:36:46;;;;;;;4.43;1.83;;;;;;;;;;4830981;29;20446;-87
2023/07/16 07:39:14;;;;;;;2.23;1.87;;;;;;;;;;4830570;29;20435;-88
2023/07/16 07:41:52;;;;;;;4.33;2.30;;;;;;;;;;4849709;29;20501;-88
2023/07/16 07:44:18;;;;;;;3.97;2.27;;;;;;;;;;4857607;29;20445;-88
2023/07/16 07:47:02;;;;;;;2.40;1.93;;;;;;;;;;4869527;29;20461;-87
2023/07/16 07:49:37;;;;;;;4.70;1.93;;;;;;;;;;4873539;29;20500;-87
2023/07/16 07:52:14;;;;;;;3.27;1.50;;;;;;;;;;4872885;29;20506;-92
2023/07/16 07:54:46;;;;;;;8.57;2.23;;;;;;;;;;4861736;29;20475;-91
2023/07/16 07:57:40;;;;;;;3.00;1.80;;;;;;;;;;4886014;29;20470;-91
2023/07/16 08:03:54;;;;;;;2.80;1.70;;;;;;;;;;4894546;29;20453;-91
2023/07/16 08:37:55;;;;;;;3.20;2.00;;;;;;;;;;4995457;28;20550;-89
2023/07/16 08:40:22;;;;;;;4.03;1.63;;;;;;;;;;4966911;28;20425;-89
2023/07/16 08:49:21;;;;;;;3.70;1.77;;;;;;;;;;4995161;28;20425;-89
2023/07/16 08:54:43;;;;;;;3.50;1.50;;;;;;;;;;4982027;28;20419;-88
2023/07/16 08:57:09;;;;;;;3.43;1.47;;;;;;;;;;4960548;28;20478;-88
2023/07/16 08:59:35;;;;;;;2.57;1.50;;;;;;;;;;4983853;28;20441;-88
2023/07/16 09:02:01;;;;;;;4.03;1.93;;;;;;;;;;4982904;28;20828;-88
2023/07/16 09:04:29;;;;;;;3.00;1.40;;;;;;;;;;4966902;28;20428;-88
2023/07/16 09:07:13;;;;;;;3.80;1.77;;;;;;;;;;4961157;28;20445;-88
2023/07/16 09:09:58;;;;;;;4.10;1.77;;;;;;;;;;4968423;28;20967;-94
2023/07/16 09:12:24;;;;;;;2.80;1.90;;;;;;;;;;4969968;28;20903;-88
2023/07/16 09:14:50;;;;;;;3.37;1.47;;;;;;;;;;4968689;28;20777;-87
2023/07/16 09:17:20;;;;;;;4.00;1.97;;;;;;;;;;4964092;28;20472;-86
2023/07/16 09:19:46;;;;;;;3.40;1.50;;;;;;;;;;4976310;28;20990;-87
2023/07/16 09:22:12;;;;;;;2.60;1.60;;;;;;;;;;4971530;28;20988;-88
2023/07/16 09:24:38;;;;;;;2.60;1.70;;;;;;;;;;4966541;28;20457;-88
2023/07/16 09:27:04;;;;;;;2.60;1.60;;;;;;;;;;4973126;28;20451;-88
2023/07/16 09:29:30;;;;;;;3.10;1.80;;;;;;;;;;4967052;28;20452;-88
2023/07/16 09:32:02;;;;;;;3.20;2.03;;;;;;;;;;4966569;28;20433;-88
2023/07/16 09:35:00;;;;;;;5.13;1.50;;;;;;;;;;4954359;28;20434;-88
2023/07/16 09:37:32;;;;;;;4.27;2.13;;;;;;;;;;4937382;29;20455;-89
2023/07/16 09:39:58;;;;;;;5.43;1.73;;;;;;;;;;4909322;29;20419;-86
2023/07/16 09:42:24;;;;;;;2.90;1.90;;;;;;;;;;4929781;29;20443;-87
2023/07/16 09:44:54;;;;;;;3.07;1.60;;;;;;;;;;4907387;29;20444;-89
2023/07/16 09:47:20;;;;;;;6.80;2.00;;;;;;;;;;4925590;29;20480;-90
2023/07/16 09:50:11;;;;;;;2.60;1.80;;;;;;;;;;4937356;29;20990;-90
2023/07/16 09:52:55;;;;;;;3.20;2.00;;;;;;;;;;4941667;29;20443;-89
2023/07/16 09:55:36;;;;;;;5.80;1.67;;;;;;;;;;4948081;29;20439;-93
2023/07/16 09:58:16;;;;;;;4.20;2.20;;;;;;;;;;4950977;29;20466;-92
2023/07/16 10:04:13;;;;;;;2.73;1.60;;;;;;;;;;4903996;29;20437;-94
2023/07/16 11:06:59;;;;;;;2.53;1.93;;;;;;;;;;5001017;28;20488;-91
2023/07/16 11:09:42;;;;;;;3.20;1.90;;;;;;;;;;4972196;28;20471;-86
2023/07/16 11:12:55;;;;;;;3.00;1.73;;;;;;;;;;5002765;28;20833;-87
2023/07/16 11:18:50;;;;;;;3.47;1.80;;;;;;;;;;4883916;29;20480;-88
2023/07/16 11:24:36;;;;;;;2.40;1.80;;;;;;;;;;4857620;29;20408;-91
2023/07/16 11:27:27;;;;;;;2.97;1.70;;;;;;;;;;4832535;29;20420;-91
2023/07/16 11:30:13;;;;;;;2.63;2.07;;;;;;;;;;4861068;29;20428;-91
2023/07/16 11:32:43;;;;;;;4.93;2.07;;;;;;;;;;4860432;29;20469;-92
2023/07/16 11:35:11;;;;;;;2.80;2.40;;;;;;;;;;4852802;29;20513;-92
2023/07/16 11:37:48;;;;;;;3.77;2.50;;;;;;;;;;4855359;29;20467;-91
2023/07/16 11:40:42;;;;;;;2.50;2.20;;;;;;;;;;4856417;29;20438;-89
2023/07/16 11:43:38;;;;;;;4.60;1.87;;;;;;;;;;4873233;29;20446;-91
2023/07/16 11:46:28;;;;;;;3.33;1.80;;;;;;;;;;4850721;29;20439;-91
2023/07/16 11:49:15;;;;;;;2.77;1.73;;;;;;;;;;4861107;29;20481;-91
2023/07/16 11:51:43;;;;;;;3.50;1.83;;;;;;;;;;4882989;29;20486;-91
2023/07/16 11:57:37;;;;;;;4.10;1.90;;;;;;;;;;4852624;29;20790;-92
2023/07/16 12:00:15;;;;;;;3.20;1.90;;;;;;;;;;4884955;29;20418;-91
2023/07/16 12:02:51;;;;;;;2.63;1.90;;;;;;;;;;4890406;29;20455;-91
2023/07/16 12:17:31;;;;;;;3.40;1.87;;;;;;;;;;4926039;29;21236;-91
2023/07/16 12:20:16;;;;;;;3.50;2.17;;;;;;;;;;4907909;29;20444;-92
2023/07/16 12:35:28;;;;;;;2.63;1.63;;;;;;;;;;4868013;29;20414;-89
2023/07/16 12:38:34;;;;;;;;;;;;;;;;;;;;;
2023/07/16 12:41:44;;;;;;;3.20;2.30;;;;;;;;;;4942663;29;20475;-92
2023/07/16 12:47:54;;;;;;;3.57;2.03;;;;;;;;;;4837753;29;21002;-90
2023/07/16 12:59:17;;;;;;;4.17;2.20;;;;;;;;;;5213241;23;20509;-91
2023/07/16 13:05:27;;;;;;;3.80;1.77;;;;;;;;;;4963742;28;20508;-91
2023/07/16 13:08:07;;;;;;;3.77;2.50;;;;;;;;;;4976515;28;20449;-91
2023/07/16 13:10:33;;;;;;;2.90;2.03;;;;;;;;;;4944131;28;20464;-91
2023/07/16 13:16:17;;;;;;;4.53;2.07;;;;;;;;;;4963938;28;20438;-91
2023/07/16 13:18:58;;;;;;;4.07;2.17;;;;;;;;;;4951037;28;20524;-91
2023/07/16 13:21:32;;;;;;;2.60;1.90;;;;;;;;;;4966610;28;20441;-91
2023/07/16 13:26:50;;;;;;;3.60;2.27;;;;;;;;;;4936765;28;20772;-90
2023/07/16 13:29:16;;;;;;;2.57;1.90;;;;;;;;;;4944404;28;20446;-90
2023/07/16 13:31:42;;;;;;;3.20;2.00;;;;;;;;;;4963348;28;20491;-90
2023/07/16 13:34:08;;;;;;;2.53;1.70;;;;;;;;;;4959291;28;20488;-90
2023/07/16 13:36:46;;;;;;;4.73;1.80;;;;;;;;;;4976094;28;20445;-91
2023/07/16 13:39:13;;;;;;;4.43;1.70;;;;;;;;;;4948905;28;20461;-90
2023/07/16 13:41:39;;;;;;;2.80;1.60;;;;;;;;;;4958715;28;20941;-90
2023/07/16 13:44:05;;;;;;;2.67;2.20;;;;;;;;;;4965859;28;21238;-88
2023/07/16 13:46:31;;;;;;;3.20;1.87;;;;;;;;;;4961734;28;20418;-90
2023/07/16 13:49:27;;;;;;;4.13;1.70;;;;;;;;;;4970769;28;20458;-91
2023/07/16 13:51:53;;;;;;;4.00;3.07;;;;;;;;;;4977676;28;20928;-92
2023/07/16 13:54:18;;;;;;;2.87;1.93;;;;;;;;;;4959471;28;20474;-88
2023/07/16 13:56:44;;;;;;;3.47;2.30;;;;;;;;;;4948998;28;20437;-90
2023/07/16 13:59:10;;;;;;;2.57;1.60;;;;;;;;;;4961333;28;20473;-89
2023/07/16 14:01:38;;;;;;;4.90;2.17;;;;;;;;;;4959252;28;20867;-89
2023/07/16 14:04:27;;;;;;;3.67;2.17;;;;;;;;;;4945443;28;20472;-92
2023/07/16 14:07:10;;;;;;;3.43;1.60;;;;;;;;;;4934992;28;20459;-92
2023/07/16 14:10:00;;;;;;;3.20;1.93;;;;;;;;;;4958255;28;20438;-91
2023/07/16 14:12:27;;;;;;;3.90;2.20;;;;;;;;;;4959252;28;20409;-91
2023/07/16 14:15:15;;;;;;;4.43;2.10;;;;;;;;;;4963888;28;20451;-91
2023/07/16 14:17:41;;;;;;;4.70;2.30;;;;;;;;;;4963872;28;20969;-90
2023/07/16 14:20:25;;;;;;;2.20;1.70;;;;;;;;;;4971615;28;20792;-91
2023/07/16 14:23:00;;;;;;;4.90;2.20;;;;;;;;;;4967929;28;20950;-91
2023/07/16 14:25:39;;;;;;;4.03;2.30;;;;;;;;;;4963802;28;20437;-92
2023/07/16 14:28:19;;;;;;;3.37;2.40;;;;;;;;;;4965518;28;20422;-90
2023/07/16 14:31:12;;;;;;;3.33;2.20;;;;;;;;;;4958497;28;20441;-90
2023/07/16 14:33:44;;;;;;;2.87;2.33;;;;;;;;;;4960839;28;20460;-90
2023/07/16 14:36:21;;;;;;;4.40;2.97;;;;;;;;;;4953064;28;20545;-90
2023/07/16 14:38:56;;;;;;;2.67;2.00;;;;;;;;;;4941325;28;20545;-89
2023/07/16 14:41:22;;;;;;;5.07;2.50;;;;;;;;;;4938451;29;20529;-91
2023/07/16 14:43:49;;;;;;;9.33;2.37;;;;;;;;;;4962362;28;20426;-90
2023/07/16 14:46:16;;;;;;;4.10;2.00;;;;;;;;;;4967888;28;20536;-91
2023/07/16 14:48:45;;;;;;;3.33;2.47;;;;;;;;;;4950522;28;20438;-91
2023/07/16 14:51:14;;;;;;;4.20;2.73;;;;;;;;;;4945762;29;20439;-91
2023/07/16 14:53:40;;;;;;;6.60;2.83;;;;;;;;;;4963690;28;20425;-91
2023/07/16 14:56:06;;;;;;;3.87;2.20;;;;;;;;;;4955313;28;20427;-91
2023/07/16 14:58:33;;;;;;;3.57;2.90;;;;;;;;;;4967448;28;20556;-92
2023/07/16 15:01:04;;;;;;;4.57;2.73;;;;;;;;;;4952272;28;21106;-91
2023/07/16 15:03:31;;;;;;;4.43;2.70;;;;;;;;;;4953134;28;20429;-91
2023/07/16 15:05:58;;;;;;;4.43;2.17;;;;;;;;;;4967328;28;20496;-91
2023/07/16 15:08:26;;;;;;;3.47;2.43;;;;;;;;;;4964534;28;20434;-91
2023/07/16 15:11:10;;;;;;;4.10;2.37;;;;;;;;;;4964507;28;20441;-91
2023/07/16 15:13:36;;;;;;;3.37;2.47;;;;;;;;;;4948324;29;20434;-91
2023/07/16 15:16:11;;;;;;;3.93;3.27;;;;;;;;;;4948957;29;20418;-91
2023/07/16 15:19:11;;;;;;;;;;;;;;;;;;;;;
2023/07/16 15:21:39;;;;;;;5.17;2.10;;;;;;;;;;4963993;28;20934;-91
2023/07/16 15:27:20;;;;;;;4.27;3.13;;;;;;;;;;4921122;29;20448;-89
2023/07/16 15:29:58;;;;;;;7.10;2.73;;;;;;;;;;4976685;28;20437;-90
2023/07/16 15:32:38;;;;;;;4.00;3.43;;;;;;;;;;4904008;29;20857;-91
2023/07/16 15:35:05;;;;;;;4.20;2.40;;;;;;;;;;4909673;29;20436;-93
2023/07/16 15:38:09;;;;;;;3.30;2.13;;;;;;;;;;4910535;29;20461;-91
2023/07/16 16:14:46;;;;;;;9.53;8.30;;;;;;;;;;4963029;28;20479;-94
2023/07/16 18:04:28;;;;;;;7.40;3.77;;;;;;;;;;4969742;28;20492;-90
2023/07/16 18:06:54;;;;;;;3.50;2.57;;;;;;;;;;4940657;28;20440;-91
2023/07/16 18:09:20;;;;;;;4.50;3.13;;;;;;;;;;4947512;28;20458;-94
2023/07/16 18:11:52;;;;;;;5.90;3.10;;;;;;;;;;4957742;28;20440;-93
2023/07/16 18:14:18;;;;;;;4.37;2.93;;;;;;;;;;4949283;28;21123;-93
2023/07/16 18:16:44;;;;;;;4.20;2.97;;;;;;;;;;4949151;28;20445;-93
2023/07/16 18:19:12;;;;;;;13.00;9.87;;;;;;;;;;4941743;28;20474;-94
2023/07/16 18:21:41;;;;;;;5.10;2.73;;;;;;;;;;4951956;28;20438;-94
2023/07/16 18:24:13;;;;;;;4.70;3.87;;;;;;;;;;4952124;28;20453;-94
2023/07/16 18:26:42;;;;;;;5.97;2.87;;;;;;;;;;4945236;28;20434;-94
2023/07/16 18:29:11;;;;;;;5.20;3.20;;;;;;;;;;4964152;28;20845;-94
2023/07/16 18:31:42;;;;;;;5.17;3.40;;;;;;;;;;4954573;28;20414;-95
2023/07/16 18:34:11;;;;;;;6.80;3.53;;;;;;;;;;4954241;28;20469;-95
2023/07/16 18:36:37;;;;;;;2.77;2.37;;;;;;;;;;4957117;28;20445;-94
2023/07/16 18:39:10;;;;;;;9.67;7.63;;;;;;;;;;4955696;28;20473;-95
2023/07/16 18:41:53;;;;;;;5.43;3.60;;;;;;;;;;4982941;28;21670;-91
2023/07/16 18:44:19;;;;;;;7.50;3.70;;;;;;;;;;4947082;28;20442;-91
2023/07/16 18:46:46;;;;;;;4.77;3.20;;;;;;;;;;4960159;28;20433;-89
2023/07/16 18:49:12;;;;;;;5.97;4.50;;;;;;;;;;4943368;28;20460;-89
2023/07/16 18:51:38;;;;;;;4.23;2.97;;;;;;;;;;4946257;28;20446;-93
2023/07/16 18:54:10;;;;;;;4.90;2.50;;;;;;;;;;4950748;28;20487;-91
2023/07/16 18:56:37;;;;;;;5.37;2.70;;;;;;;;;;4952816;28;20973;-93
2023/07/16 18:59:03;;;;;;;3.70;2.60;;;;;;;;;;4948533;28;20469;-92
2023/07/16 19:01:29;;;;;;;3.60;2.70;;;;;;;;;;4957386;28;20472;-94
2023/07/16 19:03:56;;;;;;;5.13;3.30;;;;;;;;;;4952227;28;20485;-94
2023/07/16 19:06:23;;;;;;;6.40;3.03;;;;;;;;;;4968044;28;20489;-93
2023/07/16 19:08:48;;;;;;;3.70;2.67;;;;;;;;;;4946891;28;20415;-89
2023/07/16 19:11:14;;;;;;;7.43;3.00;;;;;;;;;;4951205;28;20434;-91
2023/07/16 19:13:53;;;;;;;6.53;3.17;;;;;;;;;;4962659;28;20433;-90
2023/07/16 19:16:19;;;;;;;3.70;3.10;;;;;;;;;;4948010;28;20433;-90
2023/07/16 19:18:45;;;;;;;5.50;3.43;;;;;;;;;;4947277;28;20465;-91
2023/07/16 19:21:11;;;;;;;5.47;3.40;;;;;;;;;;4949000;28;20541;-91
2023/07/16 19:24:03;;;;;;;3.70;3.00;;;;;;;;;;4960476;28;20433;-90
2023/07/16 19:26:56;;;;;;;7.53;3.10;;;;;;;;;;4972160;28;20517;-89
2023/07/16 19:29:22;;;;;;;4.00;2.60;;;;;;;;;;4961933;28;20426;-90
2023/07/16 19:31:48;;;;;;;4.03;2.33;;;;;;;;;;4947987;28;20437;-89
2023/07/16 19:34:17;;;;;;;7.37;2.73;;;;;;;;;;4949136;28;20580;-91
2023/07/16 19:36:43;;;;;;;4.77;3.00;;;;;;;;;;4941043;28;20469;-91
2023/07/16 19:39:09;;;;;;;4.43;2.90;;;;;;;;;;4947892;28;20464;-91
2023/07/16 19:41:35;;;;;;;8.93;2.70;;;;;;;;;;4945771;28;20860;-90
2023/07/16 19:44:01;;;;;;;4.80;3.30;;;;;;;;;;4967632;28;20465;-93
2023/07/16 19:46:29;;;;;;;5.63;3.47;;;;;;;;;;4944352;28;20434;-93
2023/07/16 19:48:55;;;;;;;4.07;2.97;;;;;;;;;;4952661;28;20493;-93
2023/07/16 19:51:21;;;;;;;3.93;2.87;;;;;;;;;;4949142;28;20441;-93
2023/07/16 19:53:56;;;;;;;4.87;2.70;;;;;;;;;;4946175;28;20494;-92
2023/07/16 19:56:22;;;;;;;8.67;2.90;;;;;;;;;;4948476;28;20751;-93
2023/07/16 19:58:49;;;;;;;5.30;3.10;;;;;;;;;;4948406;28;20477;-91
2023/07/16 20:01:15;;;;;;;3.30;2.63;;;;;;;;;;4948940;28;21195;-92
2023/07/16 20:03:56;;;;;;;4.10;2.80;;;;;;;;;;4949910;28;20496;-92
2023/07/16 20:06:28;;;;;;;5.67;3.30;;;;;;;;;;4933675;28;20481;-91
2023/07/16 20:08:56;;;;;;;4.30;2.83;;;;;;;;;;4947663;28;20480;-91
2023/07/16 20:11:22;;;;;;;5.50;3.70;;;;;;;;;;4948075;28;20480;-91
2023/07/16 20:13:51;;;;;;;6.30;3.70;;;;;;;;;;4948556;28;20441;-90
2023/07/16 20:16:31;;;;;;;5.50;3.80;;;;;;;;;;4945869;28;20437;-91
2023/07/16 20:19:00;;;;;;;6.20;5.20;;;;;;;;;;4960385;28;20477;-91
2023/07/16 20:21:27;;;;;;;4.77;3.70;;;;;;;;;;4966211;28;20449;-91
2023/07/16 20:23:56;;;;;;;4.20;2.67;;;;;;;;;;4956505;28;20457;-90
2023/07/16 20:26:27;;;;;;;4.30;3.00;;;;;;;;;;4948395;28;20426;-93
2023/07/16 20:28:58;;;;;;;4.90;2.50;;;;;;;;;;4943329;28;20438;-87
2023/07/16 20:31:28;;;;;;;5.83;3.30;;;;;;;;;;4948524;28;20430;-88
2023/07/16 20:33:55;;;;;;;4.37;3.40;;;;;;;;;;4947381;28;20849;-89
2023/07/16 20:36:24;;;;;;;5.93;3.63;;;;;;;;;;4950416;28;20505;-92
2023/07/16 20:38:55;;;;;;;7.57;3.80;;;;;;;;;;4949694;28;20497;-92
2023/07/16 20:41:22;;;;;;;4.90;3.37;;;;;;;;;;4950204;28;20464;-91
2023/07/16 20:43:57;;;;;;;9.63;3.00;;;;;;;;;;4946908;28;21016;-89
2023/07/16 20:46:24;;;;;;;4.67;2.90;;;;;;;;;;4943092;28;20425;-88
2023/07/16 20:48:51;;;;;;;8.93;3.47;;;;;;;;;;4942373;28;20450;-88
2023/07/16 20:51:17;;;;;;;6.53;3.53;;;;;;;;;;4943256;28;20441;-92
2023/07/16 20:53:45;;;;;;;4.10;2.93;;;;;;;;;;4952207;28;20461;-89
2023/07/16 20:56:11;;;;;;;5.80;3.07;;;;;;;;;;4947243;28;20871;-91
2023/07/16 20:58:37;;;;;;;5.63;3.80;;;;;;;;;;4967206;28;20575;-90
2023/07/16 21:01:03;;;;;;;6.93;3.80;;;;;;;;;;4948730;28;20438;-91
2023/07/16 21:03:31;;;;;;;3.60;2.97;;;;;;;;;;4949100;28;20434;-91
2023/07/16 21:06:02;;;;;;;4.50;3.13;;;;;;;;;;4976627;28;20426;-91
2023/07/16 21:08:29;;;;;;;4.60;2.50;;;;;;;;;;4946375;28;20478;-90
2023/07/16 21:10:55;;;;;;;7.50;3.27;;;;;;;;;;4952567;28;20857;-91
2023/07/16 21:13:21;;;;;;;4.40;3.10;;;;;;;;;;4949645;28;20468;-91
2023/07/16 21:15:47;;;;;;;5.10;3.70;;;;;;;;;;4947865;28;20441;-90
2023/07/16 21:18:13;;;;;;;5.00;3.30;;;;;;;;;;4962859;28;20875;-90
2023/07/16 21:20:39;;;;;;;5.13;3.27;;;;;;;;;;4946207;28;20438;-90
2023/07/16 21:23:06;;;;;;;7.10;3.57;;;;;;;;;;4946321;28;20457;-91
2023/07/16 21:25:32;;;;;;;4.20;2.97;;;;;;;;;;4949729;28;20445;-93
2023/07/16 21:28:04;;;;;;;6.60;3.40;;;;;;;;;;4944843;28;20446;-92
2023/07/16 21:30:30;;;;;;;4.73;3.60;;;;;;;;;;4943779;28;20557;-92
2023/07/16 21:32:56;;;;;;;5.53;3.30;;;;;;;;;;4947916;28;20436;-93
2023/07/16 21:35:22;;;;;;;4.43;2.80;;;;;;;;;;4966327;28;20465;-92
2023/07/16 21:37:48;;;;;;;5.70;3.40;;;;;;;;;;4949510;28;20454;-92
2023/07/16 21:40:17;;;;;;;7.73;3.30;;;;;;;;;;4953632;28;20434;-92
2023/07/16 21:42:43;;;;;;;6.30;2.83;;;;;;;;;;4947327;28;20992;-92
2023/07/16 21:45:09;;;;;;;5.67;3.40;;;;;;;;;;4951394;28;20553;-92
2023/07/16 21:47:35;;;;;;;5.97;3.97;;;;;;;;;;4950408;28;20424;-92
2023/07/16 21:50:02;;;;;;;9.03;3.23;;;;;;;;;;4947497;28;20446;-92
2023/07/16 21:52:28;;;;;;;7.70;3.20;;;;;;;;;;4949970;28;20440;-92
2023/07/16 21:54:54;;;;;;;3.80;3.00;;;;;;;;;;4951076;28;20421;-92
2023/07/16 21:57:23;;;;;;;5.60;2.93;;;;;;;;;;4949365;28;20461;-92
2023/07/16 21:59:49;;;;;;;4.90;3.67;;;;;;;;;;4946585;28;20459;-93
2023/07/16 22:02:17;;;;;;;6.77;3.57;;;;;;;;;;4949003;28;20474;-92
2023/07/16 22:04:43;;;;;;;3.87;3.00;;;;;;;;;;4965408;28;20425;-93
2023/07/16 22:07:09;;;;;;;7.07;3.97;;;;;;;;;;4947251;28;20425;-93
2023/07/16 22:09:35;;;;;;;3.30;2.80;;;;;;;;;;4948725;28;20413;-92
2023/07/16 22:12:01;;;;;;;4.03;3.17;;;;;;;;;;4947312;28;20466;-92
2023/07/16 22:14:27;;;;;;;5.27;2.93;;;;;;;;;;4947532;28;20489;-93
2023/07/16 22:16:53;;;;;;;4.50;3.03;;;;;;;;;;4947995;28;20504;-92
2023/07/16 22:19:19;;;;;;;7.53;3.40;;;;;;;;;;4948807;28;20457;-93
2023/07/16 22:21:45;;;;;;;5.43;3.37;;;;;;;;;;4947826;28;20426;-93
2023/07/16 22:24:12;;;;;;;4.40;2.90;;;;;;;;;;4950300;28;20415;-93
2023/07/16 22:26:38;;;;;;;5.03;2.93;;;;;;;;;;4942246;28;20430;-92
2023/07/16 22:29:04;;;;;;;6.80;3.37;;;;;;;;;;4944578;28;20468;-93
2023/07/16 22:31:30;;;;;;;8.23;3.50;;;;;;;;;;4944476;28;20476;-92
2023/07/16 22:33:56;;;;;;;6.10;3.13;;;;;;;;;;4948339;28;20808;-92
2023/07/16 22:36:25;;;;;;;5.17;2.60;;;;;;;;;;4945146;28;20436;-92
2023/07/16 22:38:51;;;;;;;6.77;3.30;;;;;;;;;;4945128;28;20489;-92
2023/07/16 22:41:17;;;;;;;3.90;2.80;;;;;;;;;;4945097;28;20437;-92
2023/07/16 22:43:43;;;;;;;4.40;2.97;;;;;;;;;;4946647;28;20418;-92
2023/07/16 22:46:09;;;;;;;4.80;3.17;;;;;;;;;;4945988;28;20968;-93
2023/07/16 22:48:39;;;;;;;4.60;2.80;;;;;;;;;;4962817;28;20426;-92
2023/07/16 22:51:05;;;;;;;6.10;3.30;;;;;;;;;;4944838;28;20428;-93
2023/07/16 22:53:32;;;;;;;3.90;2.90;;;;;;;;;;4947459;28;20410;-92
2023/07/16 22:56:01;;;;;;;3.97;3.50;;;;;;;;;;4945651;28;20414;-94